Data for 08/22/2010

Time Sea-Level Adjusted Pressure Absolute Pressure Temperature Relative Humidity Dew Point   
(mb) (inHg) (mb) (inHg) (C) (F) (%) (C) (F)
00:05 1014 29.94 844 24.92 21.8 71.2 26 1.4 34.5
00:10 1014 29.94 844 24.92 22 71.6 26 1.6 34.9
00:15 1014 29.94 844 24.92 22 71.7 26 1.7 35.1
00:20 1014 29.94 844 24.92 22.1 71.8 26 2 35.6
00:25 1014 29.94 844 24.92 21.9 71.4 26 1.6 34.9
00:30 1015 29.97 844 24.92 21.8 71.3 25 1 33.8
00:35 1015 29.97 844 24.92 22.2 72 24 0.6 33.1
00:40 1015 29.97 844 24.92 22.7 72.9 23 0.7 33.2
00:45 1015 29.97 844 24.92 22.8 73.1 23 0.8 33.5
00:50 1015 29.97 844 24.92 22.8 73 23 1.1 33.9
00:55 1015 29.97 844 24.92 22.7 72.9 23 0.9 33.7
01:00 1015 29.97 844 24.92 22.8 73.1 22 0.1 32.1
01:05 1015 29.97 844 24.92 23.2 73.8 21 0.2 32.3
01:10 1015 29.97 844 24.92 23.6 74.4 22 0.8 33.5
01:15 1015 29.97 844 24.92 22.9 73.2 23 0.9 33.6
01:20 1015 29.97 844 24.92 23.6 74.5 23 1.7 35.1
01:25 1015 29.97 844 24.92 23.2 73.7 25 2.2 36
01:30 1015 29.97 844 24.92 22.7 72.8 26 2.4 36.4
01:35 1015 29.97 844 24.92 22.5 72.6 26 2.1 35.7
01:40 1015 29.97 844 24.92 22.5 72.4 26 2.4 36.3
01:45 1015 29.97 844 24.92 22.2 71.9 27 2.6 36.7
01:50 1015 29.97 844 24.92 22 71.7 28 2.7 36.9
01:55 1015 29.97 845 24.95 21.8 71.2 28 2.9 37.2
02:00 1015 29.97 844 24.92 21.7 71 29 2.9 37.3
02:05 1015 29.97 844 24.92 21.8 71.2 28 2.9 37.2
02:10 1015 29.97 844 24.92 21.8 71.2 28 2.9 37.2
02:15 1015 29.97 844 24.92 21.8 71.3 29 3 37.5
02:20 1015 29.97 844 24.92 22.1 71.8 29 3.3 37.9
02:25 1015 29.97 844 24.92 21.9 71.4 30 3.6 38.5
02:30 1015 29.97 844 24.92 21.6 71 31 3.8 38.9
02:35 1015 29.97 844 24.92 21.4 70.6 31 3.9 39
02:40 1015 29.97 844 24.92 21.2 70.1 32 4 39.2
02:45 1015 29.97 844 24.92 21 69.9 32 4.1 39.3
02:50 1015 29.97 844 24.92 21 69.7 33 4.4 39.8
02:55 1015 29.97 844 24.92 20.8 69.4 34 4.6 40.2
03:00 1015 29.97 844 24.92 20.6 69.2 36 5.1 41.1
03:05 1015 29.97 844 24.92 20.4 68.8 36 5.2 41.4
03:10 1015 29.97 844 24.92 20.4 68.8 37 5.2 41.4
03:15 1015 29.97 844 24.92 20.4 68.8 37 5.3 41.5
03:20 1015 29.97 844 24.92 20.4 68.7 37 5.5 41.8
03:25 1015 29.97 844 24.92 20.3 68.6 38 5.6 42
03:30 1015 29.97 844 24.92 20.2 68.3 39 5.9 42.7
03:35 1015 29.97 844 24.92 20 68 40 6.2 43.1
03:40 1015 29.97 845 24.95 19.8 67.6 42 6.7 44
03:45 1015 29.97 845 24.95 19.6 67.3 41 6.1 42.9
03:50 1015 29.97 844 24.92 19.5 67.2 42 6.3 43.3
03:55 1015 29.97 844 24.92 19 66.2 46 7.2 44.9
04:00 1015 29.97 845 24.95 18.5 65.3 48 7.2 45
04:05 1016 30 845 24.95 18.3 65 50 7.9 46.2
04:10 1016 30 845 24.95 18.6 65.5 45 6.6 43.9
04:15 1016 30 845 24.95 19.2 66.6 42 6.1 42.9
04:20 1016 30 845 24.95 20.1 68.1 38 5.6 42
04:25 1016 30 845 24.95 20.7 69.2 37 5.8 42.4
04:30 1016 30 845 24.95 20.6 69 40 6.5 43.8
04:35 1016 30 845 24.95 20.2 68.4 40 6.3 43.4
04:40 1015 29.97 845 24.95 20.3 68.6 39 6.1 42.9
04:45 1015 29.97 844 24.92 20.7 69.3 37 5.5 41.9
04:50 1014 29.94 844 24.92 20.9 69.7 39 6.6 43.9
04:55 1015 29.97 844 24.92 20.6 69.1 41 6.9 44.5
05:00 1015 29.97 844 24.92 20.4 68.7 40 6.7 44
05:05 1015 29.97 844 24.92 20.1 68.1 43 7.4 45.4
05:10 1015 29.97 845 24.95 19.7 67.5 43 7.1 44.8
05:15 1015 29.97 845 24.95 19.7 67.4 45 7.5 45.4
05:20 1015 29.97 845 24.95 19.4 66.9 46 7.6 45.7
05:25 1016 30 845 24.95 19.2 66.6 47 7.8 46
05:30 1016 30 845 24.95 19 66.3 48 7.8 46.1
05:35 1015 29.97 845 24.95 19 66.2 41 5.7 42.3
05:40 1015 29.97 844 24.92 19.9 67.9 44 7.4 45.3
05:45 1015 29.97 844 24.92 19.7 67.4 44 7.2 45
05:50 1015 29.97 844 24.92 19.5 67.1 45 7.5 45.5
05:55 1015 29.97 844 24.92 19.5 67.1 44 7.1 44.8
06:00 1015 29.97 844 24.92 19.6 67.2 43 6.9 44.4
06:05 1015 29.97 844 24.92 19.6 67.2 45 7.4 45.3
06:10 1015 29.97 844 24.92 19.3 66.8 46 7.5 45.5
06:15 1015 29.97 844 24.92 19.3 66.8 45 7.4 45.3
06:20 1015 29.97 844 24.92 19.5 67 44 7 44.6
06:25 1015 29.97 844 24.92 19.4 66.9 48 8.1 46.6
06:30 1015 29.97 844 24.92 19.2 66.5 45 7 44.6
06:35 1015 29.97 844 24.92 19.6 67.3 44 7.1 44.8
06:40 1015 29.97 844 24.92 19.8 67.6 43 6.8 44.3
06:45 1015 29.97 844 24.92 19.7 67.4 44 7.1 44.8
06:50 1015 29.97 844 24.92 20 68 42 6.8 44.3
06:55 1015 29.97 844 24.92 19.9 67.8 42 6.9 44.3
07:00 1015 29.97 844 24.92 20.4 68.6 40 6.4 43.6
07:05 1015 29.97 844 24.92 20.5 68.9 39 6.2 43.1
07:10 1015 29.97 844 24.92 20.8 69.4 38 6.2 43.1
07:15 1015 29.97 844 24.92 20.7 69.2 40 6.6 43.9
07:20 1015 29.97 844 24.92 20.6 69.1 39 6.4 43.5
07:25 1015 29.97 844 24.92 20.6 69 40 6.7 44
07:30 1015 29.97 844 24.92 20.4 68.7 39 6.2 43.2
07:35 1015 29.97 844 24.92 20.4 68.6 40 6.5 43.7
07:40 1015 29.97 844 24.92 20.4 68.6 38 5.8 42.4
07:45 1015 29.97 844 24.92 20.6 69.1 38 5.9 42.6
07:50 1015 29.97 844 24.92 20.7 69.2 39 6.2 43.2
07:55 1015 29.97 844 24.92 20.6 69.1 38 6 42.8
08:00 1015 29.97 844 24.92 20.7 69.3 38 6 42.8
08:05 1015 29.97 844 24.92 21 69.7 37 6 42.7
08:10 1015 29.97 844 24.92 21.1 69.9 37 6 42.7
08:15 1014 29.94 844 24.92 21.1 70 36 5.5 41.9
08:20 1015 29.97 844 24.92 21.2 70.2 36 5.8 42.5
08:25 1015 29.97 844 24.92 21.2 70.1 37 6 42.8
08:30 1015 29.97 844 24.92 21.2 70.2 36 5.7 42.2
08:35 1015 29.97 844 24.92 21.5 70.7 35 5.6 42.1
08:40 1015 29.97 844 24.92 21.5 70.6 36 6.1 43
08:45 1015 29.97 844 24.92 21.2 70.1 39 6.8 44.3
08:50 1015 29.97 844 24.92 20.9 69.6 40 7 44.6
08:55 1015 29.97 844 24.92 20.8 69.4 40 7 44.5
09:00 1015 29.97 844 24.92 20.6 69.1 41 7 44.5
09:05 1015 29.97 844 24.92 20.8 69.5 42 7.7 45.9
09:10 1015 29.97 844 24.92 20.9 69.6 41 7.4 45.3
09:15 1015 29.97 844 24.92 21.1 69.9 42 8 46.3
09:20 1015 29.97 845 24.95 20.9 69.7 44 8.5 47.3
09:25 1015 29.97 845 24.95 20.8 69.4 43 7.8 46.1
09:30 1015 29.97 845 24.95 20.6 69 45 8.5 47.3
09:35 1015 29.97 845 24.95 20.1 68.3 48 9 48.1
09:40 1015 29.97 845 24.95 19.8 67.6 48 8.5 47.4
09:45 1015 29.97 845 24.95 19.7 67.4 48 8.6 47.5
09:50 1015 29.97 844 24.92 19.8 67.6 47 8.2 46.8
09:55 1015 29.97 844 24.92 19.7 67.4 48 8.5 47.3
10:00 1015 29.97 844 24.92 19.7 67.4 46 8 46.5
10:05 1015 29.97 844 24.92 19.9 67.9 47 8.3 47
10:10 1015 29.97 844 24.92 20 68.1 44 7.7 45.8
10:15 1015 29.97 844 24.92 20.3 68.5 44 7.8 46.1
10:20 1015 29.97 844 24.92 20.5 68.8 45 8.3 46.9
10:25 1015 29.97 844 24.92 20.6 69 44 8 46.4
10:30 1015 29.97 844 24.92 20.6 69 44 8.1 46.6
10:35 1015 29.97 844 24.92 20.7 69.2 46 8.9 48
10:40 1015 29.97 844 24.92 20.8 69.4 46 8.9 48
10:45 1015 29.97 845 24.95 20.7 69.3 45 8.5 47.3
10:50 1015 29.97 845 24.95 21 69.8 46 9.1 48.4
10:55 1015 29.97 845 24.95 21.2 70.2 41 7.5 45.5
11:00 1016 30 845 24.95 21.6 70.9 41 7.8 46.1
11:05 1015 29.97 845 24.95 21.8 71.2 45 9.4 48.8
11:10 1015 29.97 844 24.92 21.4 70.5 43 8.5 47.3
11:15 1015 29.97 844 24.92 21.7 71 34 5.1 41.2
11:20 1015 29.97 844 24.92 22.1 71.8 31 4.2 39.6
11:25 1015 29.97 844 24.92 22.5 72.5 31 4.9 40.9
11:30 1015 29.97 844 24.92 22.7 72.9 31 4.7 40.5
11:35 1015 29.97 844 24.92 22.6 72.7 28 3.6 38.4
11:40 1015 29.97 844 24.92 22.8 73.1 28 3.5 38.3
11:45 1015 29.97 844 24.92 22.8 73 30 4.4 39.9
11:50 1015 29.97 845 24.95 22.6 72.6 31 4.8 40.6
11:55 1016 30 845 24.95 22.5 72.5 30 4.3 39.7
12:00 1016 30 845 24.95 22.4 72.2 31 4.6 40.3
12:05 1016 30 845 24.95 22.3 72.1 32 5.1 41.1
12:10 1016 30 845 24.95 22.2 72 31 4.6 40.2
12:15 1015 29.97 845 24.95 22.3 72.1 30 3.9 39.1
12:20 1015 29.97 845 24.95 22.4 72.3 29 3.9 39
12:25 1015 29.97 844 24.92 22.4 72.3 28 3.3 37.9
12:30 1015 29.97 844 24.92 22.4 72.4 29 3.6 38.4
12:35 1015 29.97 845 24.95 22.4 72.4 27 2.7 36.9
12:40 1016 30 845 24.95 22.3 72.1 29 3.5 38.4
12:45 1016 30 845 24.95 22 71.5 31 4.1 39.4
12:50 1016 30 845 24.95 21.7 71 31 4.2 39.5
12:55 1016 30 845 24.95 21.5 70.6 32 4.3 39.7
13:00 1016 30 845 24.95 21.9 71.3 32 4.7 40.5
13:05 1015 29.97 845 24.95 21.8 71.3 30 3.5 38.3
13:10 1015 29.97 845 24.95 21.6 70.8 29 3.1 37.6
13:15 1015 29.97 844 24.92 21.8 71.2 30 3.7 38.7
13:20 1016 30 845 24.95 21.9 71.5 31 4.3 39.8
13:25 1016 30 845 24.95 21.7 71.1 30 3.5 38.3
13:30 1016 30 845 24.95 21.4 70.6 31 3.9 39.1
13:35 1016 30 845 24.95 21.4 70.5 31 3.8 38.9
13:40 1016 30 845 24.95 21.8 71.3 30 3.7 38.7
13:45 1016 30 845 24.95 21.4 70.5 30 3.3 37.9
13:50 1016 30 845 24.95 21.4 70.5 30 3.5 38.3
13:55 1016 30 845 24.95 21.2 70.2 30 3.1 37.6
14:00 1016 30 845 24.95 21.3 70.3 30 3.3 37.9
14:05 1016 30 845 24.95 21.3 70.4 31 3.8 38.8
14:10 1016 30 845 24.95 21.2 70.2 32 3.9 39
14:15 1016 30 846 24.98 21 69.9 31 3.4 38.2
14:20 1017 30.03 846 24.98 21 69.8 32 3.9 39
14:25 1017 30.03 846 24.98 20.8 69.4 34 4.4 40
14:30 1017 30.03 846 24.98 20.5 68.9 34 4.2 39.6
14:35 1017 30.03 846 24.98 20.3 68.6 33 3.9 39
14:40 1016 30 846 24.98 20.3 68.5 35 4.6 40.3
14:45 1016 30 846 24.98 20.2 68.4 35 4.3 39.8
14:50 1016 30 846 24.98 20.3 68.6 34 4.1 39.4
14:55 1017 30.03 846 24.98 20.2 68.3 36 4.7 40.5
15:00 1017 30.03 846 24.98 20 67.9 39 5.7 42.2
15:05 1016 30 846 24.98 19.8 67.7 39 5.7 42.2
15:10 1016 30 846 24.98 19.6 67.3 41 6.3 43.3
15:15 1016 30 845 24.95 19.7 67.5 37 4.8 40.6
15:20 1016 30 845 24.95 20 68 35 4.4 40
15:25 1016 30 845 24.95 20.2 68.4 36 4.8 40.6
15:30 1016 30 845 24.95 20.3 68.5 34 4.2 39.5
15:35 1016 30 845 24.95 20.2 68.3 34 3.9 39
15:40 1016 30 845 24.95 20.2 68.3 33 3.6 38.6
15:45 1016 30 845 24.95 20.2 68.4 33 3.4 38.1
15:50 1016 30 845 24.95 20.3 68.6 33 3.9 39
15:55 1016 30 845 24.95 20.4 68.8 32 3.4 38.1
16:00 1016 30 845 24.95 20.5 69 32 3.4 38.1
16:05 1016 30 845 24.95 20.4 68.7 32 3.4 38.1
16:10 1016 30 845 24.95 19.8 67.6 35 4.1 39.5
16:15 1016 30 845 24.95 19.3 66.7 39 5.1 41.2
16:20 1016 30 845 24.95 18.5 65.3 48 7.5 45.6
16:25 1016 30 845 24.95 17.2 63 51 7 44.6
16:30 1016 30 845 24.95 17.2 63 49 6.5 43.7
16:35 1016 30 845 24.95 17.8 64.1 46 6 42.8
16:40 1016 30 845 24.95 18.2 64.8 45 6.1 43
16:45 1016 30 845 24.95 18.3 64.9 44 6.1 43
16:50 1016 30 845 24.95 18.4 65.1 42 5.2 41.4
16:55 1016 30 845 24.95 19 66.1 37 4 39.3
17:00 1016 30 845 24.95 19.1 66.3 37 4.2 39.5
17:05 1016 30 845 24.95 19.2 66.6 33 2.6 36.6
17:10 1016 30 845 24.95 19.7 67.4 33 3 37.4
17:15 1016 30 845 24.95 19.5 67.1 34 3.2 37.8
17:20 1016 30 845 24.95 19.3 66.8 33 2.7 36.8
17:25 1016 30 845 24.95 19.2 66.5 34 2.9 37.2
17:30 1016 30 845 24.95 18.8 65.9 36 3.4 38.2
17:35 1016 30 845 24.95 18.7 65.6 35 3.2 37.8
17:40 1016 30 845 24.95 18.8 65.8 34 2.5 36.6
17:45 1016 30 845 24.95 18.9 65.9 33 2.6 36.6
17:50 1016 30 845 24.95 18.8 65.8 33 2.3 36.2
17:55 1016 30 845 24.95 18.5 65.3 36 3.1 37.6
18:00 1016 30 845 24.95 18.2 64.7 36 3.1 37.7
18:05 1016 30 845 24.95 18 64.4 37 3.3 37.9
18:10 1016 30 845 24.95 17.9 64.2 36 2.7 36.8
18:15 1016 30 845 24.95 18.1 64.5 36 2.7 36.9
18:20 1015 29.97 844 24.92 18.3 64.9 34 2.3 36.1
18:25 1015 29.97 844 24.92 18.7 65.6 33 2.4 36.3
18:30 1015 29.97 844 24.92 18.8 65.8 34 2.8 37
18:35 1015 29.97 844 24.92 18.8 65.8 33 2.4 36.3
18:40 1015 29.97 844 24.92 18.8 65.8 33 2.3 36.2
18:45 1015 29.97 844 24.92 18.7 65.6 33 2.4 36.3
18:50 1015 29.97 844 24.92 18.6 65.5 32 1.7 35.1
18:55 1015 29.97 844 24.92 19 66.2 31 1.5 34.7
19:00 1015 29.97 845 24.95 19.1 66.4 31 1.8 35.2
19:05 1016 30 845 24.95 19.1 66.3 32 2 35.6
19:10 1016 30 845 24.95 19.1 66.3 30 1.4 34.6
19:15 1016 30 845 24.95 19.3 66.8 30 1.6 34.9
19:20 1016 30 845 24.95 19.3 66.8 30 1.7 35
19:25 1016 30 845 24.95 19.3 66.7 31 1.8 35.2
19:30 1016 30 845 24.95 19.2 66.5 31 1.7 35
19:35 1016 30 845 24.95 19.1 66.4 31 1.6 34.8
19:40 1016 30 846 24.98 19.1 66.4 30 1.4 34.6
19:45 1017 30.03 846 24.98 19.2 66.5 31 1.7 35.1
19:50 1017 30.03 846 24.98 18.9 66.1 35 3.1 37.6
19:55 1017 30.03 846 24.98 18.4 65.1 38 3.9 39.1
20:00 1017 30.03 846 24.98 18 64.5 37 3.3 38
20:05 1017 30.03 847 25.01 18 64.3 37 3.3 37.9
20:10 1017 30.03 847 25.01 18 64.4 35 2.3 36.2
20:15 1017 30.03 847 25.01 18.2 64.8 35 2.6 36.7
20:20 1017 30.03 847 25.01 18.3 65 35 2.8 37.1
20:25 1017 30.03 847 25.01 18.2 64.7 36 3.1 37.6
20:30 1017 30.03 846 24.98 17.8 64 38 3.5 38.2
20:35 1017 30.03 846 24.98 17.5 63.4 39 3.6 38.5
20:40 1017 30.03 846 24.98 17.2 63 41 3.8 38.9
20:45 1017 30.03 846 24.98 17.1 62.9 40 3.7 38.6
20:50 1017 30.03 847 25.01 17.1 62.7 41 3.7 38.7
20:55 1018 30.06 847 25.01 17 62.7 41 3.8 38.9
21:00 1018 30.06 847 25.01 16.9 62.5 41 3.9 39
21:05 1018 30.06 847 25.01 16.9 62.3 42 3.9 39
21:10 1018 30.06 847 25.01 16.8 62.2 43 4.1 39.4
21:15 1018 30.06 847 25.01 16.6 61.8 44 4.5 40.1
21:20 1018 30.06 847 25.01 16.2 61.2 44 4.1 39.4
21:25 1018 30.06 847 25.01 16.3 61.3 42 3.5 38.3
21:30 1017 30.03 847 25.01 16.5 61.7 44 4.4 39.9
21:35 1018 30.06 847 25.01 16.5 61.7 45 4.5 40.2
21:40 1018 30.06 847 25.01 16.3 61.4 46 4.7 40.4
21:45 1017 30.03 847 25.01 16.2 61.2 47 5.1 41.2
21:50 1018 30.06 847 25.01 16.1 61 50 5.8 42.5
21:55 1018 30.06 847 25.01 16 60.8 54 6.7 44.1
22:00 1018 30.06 847 25.01 15.8 60.4 57 7.5 45.4
22:05 1018 30.06 847 25.01 15.4 59.7 59 7.6 45.6
22:10 1018 30.06 847 25.01 15.1 59.3 60 7.5 45.5
22:15 1018 30.06 848 25.04 14.9 58.9 61 7.5 45.5
22:20 1019 30.09 848 25.04 14.8 58.7 60 7.3 45.2
22:25 1019 30.09 848 25.04 14.8 58.6 61 7.3 45.2
22:30 1019 30.09 848 25.04 14.7 58.4 60 7.2 44.9
22:35 1019 30.09 848 25.04 14.6 58.2 63 7.7 45.8
22:40 1019 30.09 848 25.04 14.3 57.8 67 8.4 47.2
22:45 1019 30.09 848 25.04 14.1 57.4 68 8.3 47
22:50 1019 30.09 849 25.07 14 57.1 68 8.2 46.7
22:55 1020 30.12 849 25.07 13.2 55.8 77 9.3 48.8
23:00 1020 30.12 849 25.07 11.7 53 84 9 48.2
23:05 1020 30.12 849 25.07 11 51.8 85 8.6 47.5
23:10 1020 30.12 849 25.07 10.3 50.6 88 8.5 47.3
23:15 1020 30.12 850 25.1 9.8 49.6 91 8.4 47.2
23:20 1021 30.15 850 25.1 9.5 49 92 8.3 46.9
23:25 1021 30.15 850 25.1 9.3 48.8 92 8.1 46.6
23:30 1021 30.15 850 25.1 9.3 48.7 93 8.1 46.6
23:35 1021 30.15 851 25.13 9.2 48.5 94 8.2 46.8
23:40 1022 30.18 851 25.13 9.1 48.3 94 8.2 46.7
23:45 1022 30.18 851 25.13 9 48.3 94 8.1 46.5
23:50 1022 30.18 851 25.13 9 48.2 94 8 46.4
23:55 1022 30.18 851 25.13 8.9 48.1 94 8 46.4
24:00 1022 30.18 851 25.13 8.9 48 94 7.9 46.3